sensor_id;sensor_type;location;lat;lon;timestamp;temperature;humidity
11122;DHT22;5615;49.304;10.576;2023-02-12T00:02:15;3.50;99.90
11122;DHT22;5615;49.304;10.576;2023-02-12T00:04:41;3.60;99.90
11122;DHT22;5615;49.304;10.576;2023-02-12T00:07:08;3.50;99.90
11122;DHT22;5615;49.304;10.576;2023-02-12T00:09:36;3.50;99.90
11122;DHT22;5615;49.304;10.576;2023-02-12T00:12:03;3.60;99.90
11122;DHT22;5615;49.304;10.576;2023-02-12T00:14:30;3.50;99.90
11122;DHT22;5615;49.304;10.576;2023-02-12T00:16:56;3.60;99.90
11122;DHT22;5615;49.304;10.576;2023-02-12T00:19:23;3.50;99.90
11122;DHT22;5615;49.304;10.576;2023-02-12T00:21:49;3.50;99.90
11122;DHT22;5615;49.304;10.576;2023-02-12T00:24:16;3.60;99.90
11122;DHT22;5615;49.304;10.576;2023-02-12T00:26:44;3.50;99.90
11122;DHT22;5615;49.304;10.576;2023-02-12T00:29:12;3.50;99.90
11122;DHT22;5615;49.304;10.576;2023-02-12T00:31:39;3.40;99.90
11122;DHT22;5615;49.304;10.576;2023-02-12T00:34:06;3.40;99.90
11122;DHT22;5615;49.304;10.576;2023-02-12T00:36:34;3.40;99.90
11122;DHT22;5615;49.304;10.576;2023-02-12T00:39:01;3.50;99.90
11122;DHT22;5615;49.304;10.576;2023-02-12T00:41:28;3.40;99.90
11122;DHT22;5615;49.304;10.576;2023-02-12T00:43:56;3.50;99.90
11122;DHT22;5615;49.304;10.576;2023-02-12T00:46:23;3.50;99.90
11122;DHT22;5615;49.304;10.576;2023-02-12T00:48:49;3.50;99.90
11122;DHT22;5615;49.304;10.576;2023-02-12T00:51:16;3.50;99.90
11122;DHT22;5615;49.304;10.576;2023-02-12T00:53:42;3.50;99.90
11122;DHT22;5615;49.304;10.576;2023-02-12T00:56:09;3.50;99.90
11122;DHT22;5615;49.304;10.576;2023-02-12T00:58:36;3.50;99.90
11122;DHT22;5615;49.304;10.576;2023-02-12T01:01:04;3.50;99.90
11122;DHT22;5615;49.304;10.576;2023-02-12T01:03:30;3.50;99.90
11122;DHT22;5615;49.304;10.576;2023-02-12T01:05:57;3.50;99.90
11122;DHT22;5615;49.304;10.576;2023-02-12T01:08:24;3.60;99.90
11122;DHT22;5615;49.304;10.576;2023-02-12T01:10:55;3.60;99.90
11122;DHT22;5615;49.304;10.576;2023-02-12T01:13:23;3.50;99.90
11122;DHT22;5615;49.304;10.576;2023-02-12T01:16:00;3.60;99.90
11122;DHT22;5615;49.304;10.576;2023-02-12T01:18:28;3.50;99.90
11122;DHT22;5615;49.304;10.576;2023-02-12T01:20:55;3.50;99.90
11122;DHT22;5615;49.304;10.576;2023-02-12T01:23:23;3.50;99.90
11122;DHT22;5615;49.304;10.576;2023-02-12T01:25:50;3.50;99.90
11122;DHT22;5615;49.304;10.576;2023-02-12T01:28:16;3.50;99.90
11122;DHT22;5615;49.304;10.576;2023-02-12T01:30:43;3.50;99.90
11122;DHT22;5615;49.304;10.576;2023-02-12T01:33:10;3.50;99.90
11122;DHT22;5615;49.304;10.576;2023-02-12T01:35:37;3.60;99.90
11122;DHT22;5615;49.304;10.576;2023-02-12T01:38:04;3.50;99.90
11122;DHT22;5615;49.304;10.576;2023-02-12T01:40:31;3.50;99.90
11122;DHT22;5615;49.304;10.576;2023-02-12T01:43:00;3.50;99.90
11122;DHT22;5615;49.304;10.576;2023-02-12T01:45:49;3.60;99.90
11122;DHT22;5615;49.304;10.576;2023-02-12T01:48:20;3.60;99.90
11122;DHT22;5615;49.304;10.576;2023-02-12T01:50:49;3.60;99.90
11122;DHT22;5615;49.304;10.576;2023-02-12T01:53:17;3.50;99.90
11122;DHT22;5615;49.304;10.576;2023-02-12T01:55:51;3.60;99.90
11122;DHT22;5615;49.304;10.576;2023-02-12T01:58:18;3.50;99.90
11122;DHT22;5615;49.304;10.576;2023-02-12T02:00:45;3.50;99.90
11122;DHT22;5615;49.304;10.576;2023-02-12T02:03:12;3.50;99.90
11122;DHT22;5615;49.304;10.576;2023-02-12T02:05:43;3.50;99.90
11122;DHT22;5615;49.304;10.576;2023-02-12T02:08:13;3.50;99.90
11122;DHT22;5615;49.304;10.576;2023-02-12T02:10:39;3.40;99.90
11122;DHT22;5615;49.304;10.576;2023-02-12T02:13:06;3.40;99.90
11122;DHT22;5615;49.304;10.576;2023-02-12T02:15:54;3.40;99.90
11122;DHT22;5615;49.304;10.576;2023-02-12T02:18:28;3.40;99.90
11122;DHT22;5615;49.304;10.576;2023-02-12T02:21:15;3.40;99.90
11122;DHT22;5615;49.304;10.576;2023-02-12T02:24:10;3.40;99.90
11122;DHT22;5615;49.304;10.576;2023-02-12T02:32:54;3.40;99.90
11122;DHT22;5615;49.304;10.576;2023-02-12T02:35:26;3.30;99.90
11122;DHT22;5615;49.304;10.576;2023-02-12T02:38:03;3.30;99.90
11122;DHT22;5615;49.304;10.576;2023-02-12T02:40:38;3.30;99.90
11122;DHT22;5615;49.304;10.576;2023-02-12T02:43:09;3.30;99.90
11122;DHT22;5615;49.304;10.576;2023-02-12T02:45:42;3.30;99.90
11122;DHT22;5615;49.304;10.576;2023-02-12T02:48:16;3.30;99.90
11122;DHT22;5615;49.304;10.576;2023-02-12T02:50:47;3.30;99.90
11122;DHT22;5615;49.304;10.576;2023-02-12T02:53:17;3.30;99.90
11122;DHT22;5615;49.304;10.576;2023-02-12T02:55:48;3.30;99.90
11122;DHT22;5615;49.304;10.576;2023-02-12T02:58:17;3.30;99.90
11122;DHT22;5615;49.304;10.576;2023-02-12T03:00:47;3.40;99.90
11122;DHT22;5615;49.304;10.576;2023-02-12T03:03:20;3.40;99.90
11122;DHT22;5615;49.304;10.576;2023-02-12T03:05:49;3.30;99.90
11122;DHT22;5615;49.304;10.576;2023-02-12T03:08:20;3.40;99.90
11122;DHT22;5615;49.304;10.576;2023-02-12T03:10:53;3.40;99.90
11122;DHT22;5615;49.304;10.576;2023-02-12T03:13:24;3.40;99.90
11122;DHT22;5615;49.304;10.576;2023-02-12T03:15:56;3.40;99.90
11122;DHT22;5615;49.304;10.576;2023-02-12T03:18:29;3.40;99.90
11122;DHT22;5615;49.304;10.576;2023-02-12T03:21:01;3.40;99.90
11122;DHT22;5615;49.304;10.576;2023-02-12T03:23:33;3.40;99.90
11122;DHT22;5615;49.304;10.576;2023-02-12T03:26:05;3.40;99.90
11122;DHT22;5615;49.304;10.576;2023-02-12T03:28:35;3.40;99.90
11122;DHT22;5615;49.304;10.576;2023-02-12T03:31:08;3.40;99.90
11122;DHT22;5615;49.304;10.576;2023-02-12T03:33:43;3.40;99.90
11122;DHT22;5615;49.304;10.576;2023-02-12T03:36:25;3.40;99.90
11122;DHT22;5615;49.304;10.576;2023-02-12T03:38:56;3.50;99.90
11122;DHT22;5615;49.304;10.576;2023-02-12T03:41:33;3.50;99.90
11122;DHT22;5615;49.304;10.576;2023-02-12T03:44:09;3.50;99.90
11122;DHT22;5615;49.304;10.576;2023-02-12T03:46:41;3.50;99.90
11122;DHT22;5615;49.304;10.576;2023-02-12T03:49:18;3.50;99.90
11122;DHT22;5615;49.304;10.576;2023-02-12T03:51:46;3.50;99.90
11122;DHT22;5615;49.304;10.576;2023-02-12T03:54:16;3.40;99.90
11122;DHT22;5615;49.304;10.576;2023-02-12T03:56:46;3.50;99.90
11122;DHT22;5615;49.304;10.576;2023-02-12T03:59:16;3.40;99.90
11122;DHT22;5615;49.304;10.576;2023-02-12T04:01:43;3.40;99.90
11122;DHT22;5615;49.304;10.576;2023-02-12T04:04:12;3.40;99.90
11122;DHT22;5615;49.304;10.576;2023-02-12T04:06:40;3.40;99.90
11122;DHT22;5615;49.304;10.576;2023-02-12T04:09:08;3.40;99.90
11122;DHT22;5615;49.304;10.576;2023-02-12T04:11:46;3.40;99.90
11122;DHT22;5615;49.304;10.576;2023-02-12T04:14:21;3.40;99.90
11122;DHT22;5615;49.304;10.576;2023-02-12T04:16:53;3.40;99.90
11122;DHT22;5615;49.304;10.576;2023-02-12T04:19:29;3.40;99.90
11122;DHT22;5615;49.304;10.576;2023-02-12T04:22:10;3.40;99.90
11122;DHT22;5615;49.304;10.576;2023-02-12T04:24:45;3.40;99.90
11122;DHT22;5615;49.304;10.576;2023-02-12T04:27:19;3.40;99.90
11122;DHT22;5615;49.304;10.576;2023-02-12T04:29:50;3.40;99.90
11122;DHT22;5615;49.304;10.576;2023-02-12T04:32:25;3.40;99.90
11122;DHT22;5615;49.304;10.576;2023-02-12T04:34:58;3.40;99.90
11122;DHT22;5615;49.304;10.576;2023-02-12T04:37:31;3.40;99.90
11122;DHT22;5615;49.304;10.576;2023-02-12T04:40:02;3.40;99.90
11122;DHT22;5615;49.304;10.576;2023-02-12T04:42:29;3.40;99.90
11122;DHT22;5615;49.304;10.576;2023-02-12T04:44:56;3.40;99.90
11122;DHT22;5615;49.304;10.576;2023-02-12T04:47:24;3.40;99.90
11122;DHT22;5615;49.304;10.576;2023-02-12T04:49:51;3.40;99.90
11122;DHT22;5615;49.304;10.576;2023-02-12T04:52:19;3.40;99.90
11122;DHT22;5615;49.304;10.576;2023-02-12T04:54:45;3.40;99.90
11122;DHT22;5615;49.304;10.576;2023-02-12T04:57:12;3.40;99.90
11122;DHT22;5615;49.304;10.576;2023-02-12T04:59:38;3.40;99.90
11122;DHT22;5615;49.304;10.576;2023-02-12T05:02:05;3.40;99.90
11122;DHT22;5615;49.304;10.576;2023-02-12T05:04:32;3.50;99.90
11122;DHT22;5615;49.304;10.576;2023-02-12T05:06:58;3.50;99.90
11122;DHT22;5615;49.304;10.576;2023-02-12T05:09:26;3.50;99.90
11122;DHT22;5615;49.304;10.576;2023-02-12T05:11:53;3.40;99.90
11122;DHT22;5615;49.304;10.576;2023-02-12T05:14:19;3.50;99.90
11122;DHT22;5615;49.304;10.576;2023-02-12T05:16:46;3.40;99.90
11122;DHT22;5615;49.304;10.576;2023-02-12T05:19:12;3.40;99.90
11122;DHT22;5615;49.304;10.576;2023-02-12T05:21:39;3.40;99.90
11122;DHT22;5615;49.304;10.576;2023-02-12T05:24:06;3.40;99.90
11122;DHT22;5615;49.304;10.576;2023-02-12T05:26:34;3.40;99.90
11122;DHT22;5615;49.304;10.576;2023-02-12T05:29:01;3.50;99.90
11122;DHT22;5615;49.304;10.576;2023-02-12T05:31:28;3.40;99.90
11122;DHT22;5615;49.304;10.576;2023-02-12T05:33:55;3.40;99.90
11122;DHT22;5615;49.304;10.576;2023-02-12T05:36:22;3.40;99.90
11122;DHT22;5615;49.304;10.576;2023-02-12T05:38:52;3.40;99.90
11122;DHT22;5615;49.304;10.576;2023-02-12T05:41:20;3.40;99.90
11122;DHT22;5615;49.304;10.576;2023-02-12T05:43:49;3.40;99.90
11122;DHT22;5615;49.304;10.576;2023-02-12T05:46:16;3.40;99.90
11122;DHT22;5615;49.304;10.576;2023-02-12T05:48:43;3.40;99.90
11122;DHT22;5615;49.304;10.576;2023-02-12T05:51:11;3.40;99.90
11122;DHT22;5615;49.304;10.576;2023-02-12T05:53:39;3.40;99.90
11122;DHT22;5615;49.304;10.576;2023-02-12T05:56:08;3.40;99.90
11122;DHT22;5615;49.304;10.576;2023-02-12T05:58:35;3.30;99.90
11122;DHT22;5615;49.304;10.576;2023-02-12T06:01:08;3.30;99.90
11122;DHT22;5615;49.304;10.576;2023-02-12T06:03:35;3.30;99.90
11122;DHT22;5615;49.304;10.576;2023-02-12T06:06:02;3.40;99.90
11122;DHT22;5615;49.304;10.576;2023-02-12T06:08:28;3.40;99.90
11122;DHT22;5615;49.304;10.576;2023-02-12T06:10:58;3.40;99.90
11122;DHT22;5615;49.304;10.576;2023-02-12T06:13:25;3.40;99.90
11122;DHT22;5615;49.304;10.576;2023-02-12T06:15:52;3.40;99.90
11122;DHT22;5615;49.304;10.576;2023-02-12T06:18:19;3.30;99.90
11122;DHT22;5615;49.304;10.576;2023-02-12T06:20:47;3.30;99.90
11122;DHT22;5615;49.304;10.576;2023-02-12T06:23:14;3.30;99.90
11122;DHT22;5615;49.304;10.576;2023-02-12T06:25:40;3.40;99.90
11122;DHT22;5615;49.304;10.576;2023-02-12T06:28:07;3.40;99.90
11122;DHT22;5615;49.304;10.576;2023-02-12T06:30:34;3.40;99.90
11122;DHT22;5615;49.304;10.576;2023-02-12T06:33:00;3.40;99.90
11122;DHT22;5615;49.304;10.576;2023-02-12T06:35:28;3.40;99.90
11122;DHT22;5615;49.304;10.576;2023-02-12T06:37:56;3.40;99.90
11122;DHT22;5615;49.304;10.576;2023-02-12T06:40:22;3.50;99.90
11122;DHT22;5615;49.304;10.576;2023-02-12T06:42:49;3.50;99.90
11122;DHT22;5615;49.304;10.576;2023-02-12T06:45:16;3.50;99.90
11122;DHT22;5615;49.304;10.576;2023-02-12T06:47:42;3.50;99.90
11122;DHT22;5615;49.304;10.576;2023-02-12T06:50:09;3.50;99.90
11122;DHT22;5615;49.304;10.576;2023-02-12T06:52:37;3.60;99.90
11122;DHT22;5615;49.304;10.576;2023-02-12T06:55:04;3.60;99.90
11122;DHT22;5615;49.304;10.576;2023-02-12T06:57:31;3.60;99.90
11122;DHT22;5615;49.304;10.576;2023-02-12T06:59:58;3.60;99.90
11122;DHT22;5615;49.304;10.576;2023-02-12T07:02:24;3.60;99.90
11122;DHT22;5615;49.304;10.576;2023-02-12T07:04:51;3.60;99.90
11122;DHT22;5615;49.304;10.576;2023-02-12T07:07:17;3.60;99.90
11122;DHT22;5615;49.304;10.576;2023-02-12T07:09:45;3.60;99.90
11122;DHT22;5615;49.304;10.576;2023-02-12T07:12:12;3.60;99.90
11122;DHT22;5615;49.304;10.576;2023-02-12T07:14:38;3.60;99.90
11122;DHT22;5615;49.304;10.576;2023-02-12T07:17:05;3.60;99.90
11122;DHT22;5615;49.304;10.576;2023-02-12T07:19:34;3.60;99.90
11122;DHT22;5615;49.304;10.576;2023-02-12T07:22:00;3.60;99.90
11122;DHT22;5615;49.304;10.576;2023-02-12T07:24:27;3.60;99.90
11122;DHT22;5615;49.304;10.576;2023-02-12T07:26:55;3.60;99.90
11122;DHT22;5615;49.304;10.576;2023-02-12T07:29:21;3.70;99.90
11122;DHT22;5615;49.304;10.576;2023-02-12T07:31:48;3.70;99.90
11122;DHT22;5615;49.304;10.576;2023-02-12T07:34:15;3.80;99.90
11122;DHT22;5615;49.304;10.576;2023-02-12T07:36:41;3.80;99.90
11122;DHT22;5615;49.304;10.576;2023-02-12T07:39:10;3.90;99.90
11122;DHT22;5615;49.304;10.576;2023-02-12T07:41:37;3.90;99.90
11122;DHT22;5615;49.304;10.576;2023-02-12T07:44:07;3.90;99.90
11122;DHT22;5615;49.304;10.576;2023-02-12T07:46:37;3.90;99.90
11122;DHT22;5615;49.304;10.576;2023-02-12T07:49:06;4.00;99.90
11122;DHT22;5615;49.304;10.576;2023-02-12T07:51:35;4.10;99.90
11122;DHT22;5615;49.304;10.576;2023-02-12T07:54:03;4.20;99.90
11122;DHT22;5615;49.304;10.576;2023-02-12T07:56:31;4.40;99.90
11122;DHT22;5615;49.304;10.576;2023-02-12T07:59:00;4.60;99.90
11122;DHT22;5615;49.304;10.576;2023-02-12T08:01:31;4.60;99.90
11122;DHT22;5615;49.304;10.576;2023-02-12T08:03:59;4.60;99.90
11122;DHT22;5615;49.304;10.576;2023-02-12T08:06:28;4.70;99.90
11122;DHT22;5615;49.304;10.576;2023-02-12T08:08:57;4.70;99.90
11122;DHT22;5615;49.304;10.576;2023-02-12T08:11:25;4.70;99.90
11122;DHT22;5615;49.304;10.576;2023-02-12T08:13:53;4.80;99.90
11122;DHT22;5615;49.304;10.576;2023-02-12T08:16:21;4.80;99.90
11122;DHT22;5615;49.304;10.576;2023-02-12T08:18:50;4.70;99.90
11122;DHT22;5615;49.304;10.576;2023-02-12T08:21:18;4.60;99.90
11122;DHT22;5615;49.304;10.576;2023-02-12T08:23:45;4.80;99.90
11122;DHT22;5615;49.304;10.576;2023-02-12T08:26:16;4.80;99.90
11122;DHT22;5615;49.304;10.576;2023-02-12T08:28:44;4.80;99.90
11122;DHT22;5615;49.304;10.576;2023-02-12T08:31:16;4.90;99.90
11122;DHT22;5615;49.304;10.576;2023-02-12T08:33:44;5.00;99.90
11122;DHT22;5615;49.304;10.576;2023-02-12T08:36:14;5.00;99.90
11122;DHT22;5615;49.304;10.576;2023-02-12T08:38:42;4.90;99.90
11122;DHT22;5615;49.304;10.576;2023-02-12T08:41:10;4.90;99.90
11122;DHT22;5615;49.304;10.576;2023-02-12T08:43:37;5.00;99.90
11122;DHT22;5615;49.304;10.576;2023-02-12T08:46:06;5.10;99.90
11122;DHT22;5615;49.304;10.576;2023-02-12T08:48:33;5.10;99.90
11122;DHT22;5615;49.304;10.576;2023-02-12T08:51:05;5.20;99.90
11122;DHT22;5615;49.304;10.576;2023-02-12T08:53:33;5.40;99.90
11122;DHT22;5615;49.304;10.576;2023-02-12T08:56:00;5.60;99.90
11122;DHT22;5615;49.304;10.576;2023-02-12T08:58:27;5.70;99.90
11122;DHT22;5615;49.304;10.576;2023-02-12T09:00:53;5.90;99.90
11122;DHT22;5615;49.304;10.576;2023-02-12T09:03:20;5.90;99.90
11122;DHT22;5615;49.304;10.576;2023-02-12T09:05:47;5.90;99.90
11122;DHT22;5615;49.304;10.576;2023-02-12T09:08:14;5.80;99.90
11122;DHT22;5615;49.304;10.576;2023-02-12T09:10:42;5.80;99.90
11122;DHT22;5615;49.304;10.576;2023-02-12T09:13:10;6.00;99.90
11122;DHT22;5615;49.304;10.576;2023-02-12T09:15:37;6.10;99.90
11122;DHT22;5615;49.304;10.576;2023-02-12T09:18:04;6.30;99.90
11122;DHT22;5615;49.304;10.576;2023-02-12T09:20:31;6.50;99.90
11122;DHT22;5615;49.304;10.576;2023-02-12T09:22:58;6.40;99.90
11122;DHT22;5615;49.304;10.576;2023-02-12T09:25:25;6.30;99.90
11122;DHT22;5615;49.304;10.576;2023-02-12T09:27:53;6.40;99.90
11122;DHT22;5615;49.304;10.576;2023-02-12T09:30:20;6.50;99.90
11122;DHT22;5615;49.304;10.576;2023-02-12T09:32:47;6.70;99.90
11122;DHT22;5615;49.304;10.576;2023-02-12T09:35:14;6.80;99.90
11122;DHT22;5615;49.304;10.576;2023-02-12T09:37:40;6.90;99.90
11122;DHT22;5615;49.304;10.576;2023-02-12T09:40:17;7.00;99.90
11122;DHT22;5615;49.304;10.576;2023-02-12T09:42:57;6.90;99.90
11122;DHT22;5615;49.304;10.576;2023-02-12T09:45:29;7.00;99.90
11122;DHT22;5615;49.304;10.576;2023-02-12T09:48:09;7.20;99.90
11122;DHT22;5615;49.304;10.576;2023-02-12T09:50:44;7.50;99.90
11122;DHT22;5615;49.304;10.576;2023-02-12T09:53:15;7.60;99.90
11122;DHT22;5615;49.304;10.576;2023-02-12T09:55:42;7.70;99.90
11122;DHT22;5615;49.304;10.576;2023-02-12T09:58:13;7.80;99.90
11122;DHT22;5615;49.304;10.576;2023-02-12T10:00:41;7.60;99.90
11122;DHT22;5615;49.304;10.576;2023-02-12T10:03:12;7.60;99.90
11122;DHT22;5615;49.304;10.576;2023-02-12T10:05:41;7.80;99.90
11122;DHT22;5615;49.304;10.576;2023-02-12T10:11:14;7.90;99.90
11122;DHT22;5615;49.304;10.576;2023-02-12T10:13:51;8.00;99.90
11122;DHT22;5615;49.304;10.576;2023-02-12T10:16:29;8.10;99.90
11122;DHT22;5615;49.304;10.576;2023-02-12T10:19:07;8.10;99.90
11122;DHT22;5615;49.304;10.576;2023-02-12T10:21:46;8.20;99.90
11122;DHT22;5615;49.304;10.576;2023-02-12T10:24:26;8.30;99.90
11122;DHT22;5615;49.304;10.576;2023-02-12T10:26:58;8.20;99.90
11122;DHT22;5615;49.304;10.576;2023-02-12T10:29:30;8.20;99.90
11122;DHT22;5615;49.304;10.576;2023-02-12T10:32:02;8.20;99.90
11122;DHT22;5615;49.304;10.576;2023-02-12T10:34:32;8.30;99.90
11122;DHT22;5615;49.304;10.576;2023-02-12T10:37:02;8.30;99.90
11122;DHT22;5615;49.304;10.576;2023-02-12T10:39:34;8.30;99.90
11122;DHT22;5615;49.304;10.576;2023-02-12T10:42:05;8.30;99.90
11122;DHT22;5615;49.304;10.576;2023-02-12T10:44:36;8.30;99.90
11122;DHT22;5615;49.304;10.576;2023-02-12T10:47:03;8.40;99.90
11122;DHT22;5615;49.304;10.576;2023-02-12T10:49:31;8.50;99.90
11122;DHT22;5615;49.304;10.576;2023-02-12T10:52:07;8.50;99.90
11122;DHT22;5615;49.304;10.576;2023-02-12T10:54:39;8.20;99.90
11122;DHT22;5615;49.304;10.576;2023-02-12T10:57:18;8.00;99.90
11122;DHT22;5615;49.304;10.576;2023-02-12T10:59:49;8.20;99.90
11122;DHT22;5615;49.304;10.576;2023-02-12T11:02:23;8.20;99.90
11122;DHT22;5615;49.304;10.576;2023-02-12T11:04:52;8.30;99.90
11122;DHT22;5615;49.304;10.576;2023-02-12T11:07:19;8.20;99.90
11122;DHT22;5615;49.304;10.576;2023-02-12T11:09:48;8.30;99.90
11122;DHT22;5615;49.304;10.576;2023-02-12T11:12:33;8.30;99.90
11122;DHT22;5615;49.304;10.576;2023-02-12T11:15:05;8.30;99.90
11122;DHT22;5615;49.304;10.576;2023-02-12T11:17:35;8.40;99.90
11122;DHT22;5615;49.304;10.576;2023-02-12T11:20:18;8.40;99.90
11122;DHT22;5615;49.304;10.576;2023-02-12T11:22:51;8.40;99.90
11122;DHT22;5615;49.304;10.576;2023-02-12T11:25:20;8.40;99.90
11122;DHT22;5615;49.304;10.576;2023-02-12T11:28:03;8.30;99.90
11122;DHT22;5615;49.304;10.576;2023-02-12T11:30:31;8.40;99.90
11122;DHT22;5615;49.304;10.576;2023-02-12T11:33:15;8.40;99.90
11122;DHT22;5615;49.304;10.576;2023-02-12T11:35:50;8.50;99.90
11122;DHT22;5615;49.304;10.576;2023-02-12T11:38:22;8.60;99.90
11122;DHT22;5615;49.304;10.576;2023-02-12T11:40:51;8.60;99.90
11122;DHT22;5615;49.304;10.576;2023-02-12T11:43:19;8.50;99.90
11122;DHT22;5615;49.304;10.576;2023-02-12T11:45:50;8.60;99.90
11122;DHT22;5615;49.304;10.576;2023-02-12T11:48:23;8.40;99.90
11122;DHT22;5615;49.304;10.576;2023-02-12T11:50:52;8.50;99.90
11122;DHT22;5615;49.304;10.576;2023-02-12T11:53:23;8.40;99.90
11122;DHT22;5615;49.304;10.576;2023-02-12T11:55:55;8.40;99.90
11122;DHT22;5615;49.304;10.576;2023-02-12T11:58:23;8.50;99.90
11122;DHT22;5615;49.304;10.576;2023-02-12T12:00:55;8.70;99.90
11122;DHT22;5615;49.304;10.576;2023-02-12T12:03:26;8.60;99.90
11122;DHT22;5615;49.304;10.576;2023-02-12T12:05:58;8.60;99.90
11122;DHT22;5615;49.304;10.576;2023-02-12T12:08:28;8.60;99.90
11122;DHT22;5615;49.304;10.576;2023-02-12T12:11:00;8.70;99.90
11122;DHT22;5615;49.304;10.576;2023-02-12T12:13:33;8.50;99.90
11122;DHT22;5615;49.304;10.576;2023-02-12T12:16:10;8.60;99.90
11122;DHT22;5615;49.304;10.576;2023-02-12T12:18:57;8.60;99.90
11122;DHT22;5615;49.304;10.576;2023-02-12T12:21:47;8.70;99.90
11122;DHT22;5615;49.304;10.576;2023-02-12T12:24:22;8.60;99.90
11122;DHT22;5615;49.304;10.576;2023-02-12T12:26:59;8.70;99.90
11122;DHT22;5615;49.304;10.576;2023-02-12T12:32:18;8.80;99.90
11122;DHT22;5615;49.304;10.576;2023-02-12T12:34:46;8.80;99.90
11122;DHT22;5615;49.304;10.576;2023-02-12T12:37:25;8.60;99.90
11122;DHT22;5615;49.304;10.576;2023-02-12T12:40:13;8.60;99.90
11122;DHT22;5615;49.304;10.576;2023-02-12T12:43:01;8.90;99.90
11122;DHT22;5615;49.304;10.576;2023-02-12T12:45:50;9.00;99.90
11122;DHT22;5615;49.304;10.576;2023-02-12T12:48:36;9.00;99.90
11122;DHT22;5615;49.304;10.576;2023-02-12T12:51:22;8.80;99.90
11122;DHT22;5615;49.304;10.576;2023-02-12T12:54:02;8.60;99.90
11122;DHT22;5615;49.304;10.576;2023-02-12T12:56:40;8.70;99.90
11122;DHT22;5615;49.304;10.576;2023-02-12T12:59:41;8.80;99.90
11122;DHT22;5615;49.304;10.576;2023-02-12T13:02:51;8.80;99.90
11122;DHT22;5615;49.304;10.576;2023-02-12T13:08:41;8.90;99.90
11122;DHT22;5615;49.304;10.576;2023-02-12T13:11:19;8.80;99.90
11122;DHT22;5615;49.304;10.576;2023-02-12T13:13:50;8.80;99.90
11122;DHT22;5615;49.304;10.576;2023-02-12T13:16:22;8.60;99.90
11122;DHT22;5615;49.304;10.576;2023-02-12T13:18:58;8.70;99.90
11122;DHT22;5615;49.304;10.576;2023-02-12T13:21:37;8.70;99.90
11122;DHT22;5615;49.304;10.576;2023-02-12T13:24:15;8.80;99.90
11122;DHT22;5615;49.304;10.576;2023-02-12T13:26:47;9.00;99.90
11122;DHT22;5615;49.304;10.576;2023-02-12T13:29:18;9.00;99.90
11122;DHT22;5615;49.304;10.576;2023-02-12T13:31:48;9.20;99.90
11122;DHT22;5615;49.304;10.576;2023-02-12T13:34:17;9.30;99.90
11122;DHT22;5615;49.304;10.576;2023-02-12T13:36:47;9.40;99.90
11122;DHT22;5615;49.304;10.576;2023-02-12T13:39:21;9.40;99.90
11122;DHT22;5615;49.304;10.576;2023-02-12T13:41:59;9.50;99.90
11122;DHT22;5615;49.304;10.576;2023-02-12T13:44:32;9.80;99.90
11122;DHT22;5615;49.304;10.576;2023-02-12T13:47:07;10.00;99.90
11122;DHT22;5615;49.304;10.576;2023-02-12T13:49:43;10.20;99.90
11122;DHT22;5615;49.304;10.576;2023-02-12T13:52:17;10.30;99.90
11122;DHT22;5615;49.304;10.576;2023-02-12T13:54:51;11.10;99.90
11122;DHT22;5615;49.304;10.576;2023-02-12T13:57:20;13.20;99.90
11122;DHT22;5615;49.304;10.576;2023-02-12T13:59:48;13.20;99.90
11122;DHT22;5615;49.304;10.576;2023-02-12T14:02:42;12.40;99.90
11122;DHT22;5615;49.304;10.576;2023-02-12T14:05:28;12.00;99.90
11122;DHT22;5615;49.304;10.576;2023-02-12T14:07:58;12.40;99.90
11122;DHT22;5615;49.304;10.576;2023-02-12T14:10:29;14.50;99.90
11122;DHT22;5615;49.304;10.576;2023-02-12T14:13:08;15.80;99.90
11122;DHT22;5615;49.304;10.576;2023-02-12T14:15:37;16.40;99.90
11122;DHT22;5615;49.304;10.576;2023-02-12T14:18:20;16.30;99.90
11122;DHT22;5615;49.304;10.576;2023-02-12T14:20:47;16.60;99.90
11122;DHT22;5615;49.304;10.576;2023-02-12T14:23:25;19.60;99.90
11122;DHT22;5615;49.304;10.576;2023-02-12T14:25:58;20.40;93.10
11122;DHT22;5615;49.304;10.576;2023-02-12T14:28:33;20.40;90.90
11122;DHT22;5615;49.304;10.576;2023-02-12T14:31:37;19.30;91.70
11122;DHT22;5615;49.304;10.576;2023-02-12T14:34:36;21.20;88.10
11122;DHT22;5615;49.304;10.576;2023-02-12T14:37:30;23.20;75.30
11122;DHT22;5615;49.304;10.576;2023-02-12T14:40:35;24.10;66.10
11122;DHT22;5615;49.304;10.576;2023-02-12T14:43:30;24.70;58.00
11122;DHT22;5615;49.304;10.576;2023-02-12T14:45:58;22.30;57.70
11122;DHT22;5615;49.304;10.576;2023-02-12T14:48:50;20.30;59.50
11122;DHT22;5615;49.304;10.576;2023-02-12T14:51:21;21.10;62.50
11122;DHT22;5615;49.304;10.576;2023-02-12T14:53:50;22.70;58.30
11122;DHT22;5615;49.304;10.576;2023-02-12T14:56:21;23.30;56.20
11122;DHT22;5615;49.304;10.576;2023-02-12T14:58:48;22.70;56.10
11122;DHT22;5615;49.304;10.576;2023-02-12T15:01:16;22.60;55.80
11122;DHT22;5615;49.304;10.576;2023-02-12T15:03:47;22.90;55.90
11122;DHT22;5615;49.304;10.576;2023-02-12T15:06:16;23.70;54.30
11122;DHT22;5615;49.304;10.576;2023-02-12T15:08:48;23.60;52.30
11122;DHT22;5615;49.304;10.576;2023-02-12T15:11:27;23.20;52.60
11122;DHT22;5615;49.304;10.576;2023-02-12T15:13:59;23.30;51.70
11122;DHT22;5615;49.304;10.576;2023-02-12T15:16:37;23.30;50.60
11122;DHT22;5615;49.304;10.576;2023-02-12T15:19:19;22.10;51.70
11122;DHT22;5615;49.304;10.576;2023-02-12T15:21:50;21.90;52.80
11122;DHT22;5615;49.304;10.576;2023-02-12T15:24:21;21.00;52.50
11122;DHT22;5615;49.304;10.576;2023-02-12T15:26:51;19.20;56.00
11122;DHT22;5615;49.304;10.576;2023-02-12T15:29:21;19.10;56.80
11122;DHT22;5615;49.304;10.576;2023-02-12T15:31:50;18.10;57.90
11122;DHT22;5615;49.304;10.576;2023-02-12T15:34:19;17.30;61.40
11122;DHT22;5615;49.304;10.576;2023-02-12T15:36:47;16.80;63.10
11122;DHT22;5615;49.304;10.576;2023-02-12T15:39:17;16.60;64.80
11122;DHT22;5615;49.304;10.576;2023-02-12T15:41:46;17.20;65.80
11122;DHT22;5615;49.304;10.576;2023-02-12T15:44:24;17.50;65.70
11122;DHT22;5615;49.304;10.576;2023-02-12T15:47:02;18.00;64.30
11122;DHT22;5615;49.304;10.576;2023-02-12T15:49:36;17.90;63.50
11122;DHT22;5615;49.304;10.576;2023-02-12T15:52:06;17.20;65.80
11122;DHT22;5615;49.304;10.576;2023-02-12T15:54:33;17.70;65.10
11122;DHT22;5615;49.304;10.576;2023-02-12T15:57:00;17.40;65.50
11122;DHT22;5615;49.304;10.576;2023-02-12T15:59:28;16.60;67.10
11122;DHT22;5615;49.304;10.576;2023-02-12T16:01:57;16.30;67.90
11122;DHT22;5615;49.304;10.576;2023-02-12T16:04:26;16.10;70.30
11122;DHT22;5615;49.304;10.576;2023-02-12T16:06:54;14.40;73.50
11122;DHT22;5615;49.304;10.576;2023-02-12T16:09:26;12.90;88.90
11122;DHT22;5615;49.304;10.576;2023-02-12T16:11:55;11.90;99.90
11122;DHT22;5615;49.304;10.576;2023-02-12T16:14:26;11.10;99.90
11122;DHT22;5615;49.304;10.576;2023-02-12T16:16:58;10.40;99.90
11122;DHT22;5615;49.304;10.576;2023-02-12T16:19:26;9.80;99.90
11122;DHT22;5615;49.304;10.576;2023-02-12T16:21:55;9.30;99.90
11122;DHT22;5615;49.304;10.576;2023-02-12T16:24:28;8.80;99.90
11122;DHT22;5615;49.304;10.576;2023-02-12T16:26:56;8.50;99.90